Millington, Maryland
Current Conditions -  °F | °C
As of 2:13 PM on Saturday 20 Dec 2014 (Local Time) from KDOV Reporting Station
Broken Clouds Broken Clouds  
Wind Chill: 36°   Ceiling: 3000
Heat Index: 36°   Visibility: 10mi
Dew Point: 25°   Wind: 2mph
Humidity: 65%   Direction: 60°ENE
Pressure: 30.24"   Gusts: NA
Location:  39.26°N, 75.84°W
Report Text: KDOV 201913Z AUTO 06002KT 10SM BKN030 02/M04 A3024 RMK AO2
Loading
Personal Weather Stations






























Interactive Weather Map New forecast layout! Learn more

10-Day Weather Forecast

Advertisements
Track Severe Weather on mobile